sensor_id;sensor_type;location;lat;lon;timestamp;P1;durP1;ratioP1;P2;durP2;ratioP2
14191;SDS011;7177;48.572;7.838;2023-04-06T00:00:36;14.57;;;11.47;;
14191;SDS011;7177;48.572;7.838;2023-04-06T00:03:02;19.33;;;12.10;;
14191;SDS011;7177;48.572;7.838;2023-04-06T00:05:27;14.73;;;12.00;;
14191;SDS011;7177;48.572;7.838;2023-04-06T00:07:55;15.68;;;12.10;;
14191;SDS011;7177;48.572;7.838;2023-04-06T00:10:22;15.15;;;11.90;;
14191;SDS011;7177;48.572;7.838;2023-04-06T00:12:47;16.00;;;12.10;;
14191;SDS011;7177;48.572;7.838;2023-04-06T00:15:13;15.87;;;11.27;;
14191;SDS011;7177;48.572;7.838;2023-04-06T00:17:39;19.25;;;12.63;;
14191;SDS011;7177;48.572;7.838;2023-04-06T00:20:05;13.23;;;11.33;;
14191;SDS011;7177;48.572;7.838;2023-04-06T00:22:32;12.90;;;11.50;;
14191;SDS011;7177;48.572;7.838;2023-04-06T00:24:58;14.70;;;11.57;;
14191;SDS011;7177;48.572;7.838;2023-04-06T00:27:23;14.03;;;11.87;;
14191;SDS011;7177;48.572;7.838;2023-04-06T00:29:49;13.23;;;10.97;;
14191;SDS011;7177;48.572;7.838;2023-04-06T00:32:15;15.93;;;12.50;;
14191;SDS011;7177;48.572;7.838;2023-04-06T00:34:41;14.67;;;10.77;;
14191;SDS011;7177;48.572;7.838;2023-04-06T00:37:06;14.23;;;11.27;;
14191;SDS011;7177;48.572;7.838;2023-04-06T00:39:31;13.23;;;11.13;;
14191;SDS011;7177;48.572;7.838;2023-04-06T00:41:57;13.30;;;10.90;;
14191;SDS011;7177;48.572;7.838;2023-04-06T00:44:24;12.67;;;11.33;;
14191;SDS011;7177;48.572;7.838;2023-04-06T00:46:50;13.38;;;10.98;;
14191;SDS011;7177;48.572;7.838;2023-04-06T00:49:15;16.50;;;11.00;;
14191;SDS011;7177;48.572;7.838;2023-04-06T00:51:41;12.83;;;10.17;;
14191;SDS011;7177;48.572;7.838;2023-04-06T00:54:06;15.17;;;11.40;;
14191;SDS011;7177;48.572;7.838;2023-04-06T00:56:32;12.67;;;10.67;;
14191;SDS011;7177;48.572;7.838;2023-04-06T00:58:57;13.57;;;11.33;;
14191;SDS011;7177;48.572;7.838;2023-04-06T01:01:23;13.83;;;11.00;;
14191;SDS011;7177;48.572;7.838;2023-04-06T01:03:50;14.23;;;11.10;;
14191;SDS011;7177;48.572;7.838;2023-04-06T01:06:16;18.00;;;10.63;;
14191;SDS011;7177;48.572;7.838;2023-04-06T01:08:42;12.37;;;10.13;;
14191;SDS011;7177;48.572;7.838;2023-04-06T01:11:07;10.87;;;9.77;;
14191;SDS011;7177;48.572;7.838;2023-04-06T01:13:33;13.47;;;10.00;;
14191;SDS011;7177;48.572;7.838;2023-04-06T01:15:58;11.47;;;9.90;;
14191;SDS011;7177;48.572;7.838;2023-04-06T01:18:27;12.23;;;9.63;;
14191;SDS011;7177;48.572;7.838;2023-04-06T01:20:54;11.98;;;9.55;;
14191;SDS011;7177;48.572;7.838;2023-04-06T01:23:20;10.80;;;9.17;;
14191;SDS011;7177;48.572;7.838;2023-04-06T01:25:45;14.07;;;9.97;;
14191;SDS011;7177;48.572;7.838;2023-04-06T01:28:11;10.80;;;9.40;;
14191;SDS011;7177;48.572;7.838;2023-04-06T01:30:36;10.03;;;8.63;;
14191;SDS011;7177;48.572;7.838;2023-04-06T01:33:02;9.90;;;8.60;;
14191;SDS011;7177;48.572;7.838;2023-04-06T01:35:28;12.37;;;8.90;;
14191;SDS011;7177;48.572;7.838;2023-04-06T01:37:55;12.60;;;9.07;;
14191;SDS011;7177;48.572;7.838;2023-04-06T01:40:21;10.20;;;8.70;;
14191;SDS011;7177;48.572;7.838;2023-04-06T01:42:46;10.20;;;8.00;;
14191;SDS011;7177;48.572;7.838;2023-04-06T01:45:12;10.37;;;8.63;;
14191;SDS011;7177;48.572;7.838;2023-04-06T01:47:37;8.53;;;7.60;;
14191;SDS011;7177;48.572;7.838;2023-04-06T01:50:03;9.60;;;7.80;;
14191;SDS011;7177;48.572;7.838;2023-04-06T01:52:31;11.40;;;9.02;;
14191;SDS011;7177;48.572;7.838;2023-04-06T01:54:57;11.10;;;8.48;;
14191;SDS011;7177;48.572;7.838;2023-04-06T01:57:23;11.37;;;9.20;;
14191;SDS011;7177;48.572;7.838;2023-04-06T01:59:48;12.10;;;9.00;;
14191;SDS011;7177;48.572;7.838;2023-04-06T02:02:14;10.90;;;8.73;;
14191;SDS011;7177;48.572;7.838;2023-04-06T02:04:40;10.70;;;8.87;;
14191;SDS011;7177;48.572;7.838;2023-04-06T02:07:05;9.60;;;8.53;;
14191;SDS011;7177;48.572;7.838;2023-04-06T02:09:31;11.60;;;9.07;;
14191;SDS011;7177;48.572;7.838;2023-04-06T02:11:57;9.63;;;8.50;;
14191;SDS011;7177;48.572;7.838;2023-04-06T02:14:24;10.67;;;8.63;;
14191;SDS011;7177;48.572;7.838;2023-04-06T02:16:50;10.32;;;8.75;;
14191;SDS011;7177;48.572;7.838;2023-04-06T02:19:16;10.65;;;8.60;;
14191;SDS011;7177;48.572;7.838;2023-04-06T02:21:42;12.17;;;8.60;;
14191;SDS011;7177;48.572;7.838;2023-04-06T02:24:08;12.83;;;9.23;;
14191;SDS011;7177;48.572;7.838;2023-04-06T02:26:33;9.37;;;8.37;;
14191;SDS011;7177;48.572;7.838;2023-04-06T02:28:59;10.50;;;8.27;;
14191;SDS011;7177;48.572;7.838;2023-04-06T02:31:25;9.80;;;8.50;;
14191;SDS011;7177;48.572;7.838;2023-04-06T02:33:51;12.23;;;9.00;;
14191;SDS011;7177;48.572;7.838;2023-04-06T02:36:16;9.00;;;8.10;;
14191;SDS011;7177;48.572;7.838;2023-04-06T02:38:42;9.73;;;7.53;;
14191;SDS011;7177;48.572;7.838;2023-04-06T02:41:07;9.83;;;8.70;;
14191;SDS011;7177;48.572;7.838;2023-04-06T02:43:33;9.27;;;8.27;;
14191;SDS011;7177;48.572;7.838;2023-04-06T02:45:58;10.20;;;8.60;;
14191;SDS011;7177;48.572;7.838;2023-04-06T02:48:24;11.83;;;8.93;;
14191;SDS011;7177;48.572;7.838;2023-04-06T02:50:49;10.37;;;8.30;;
14191;SDS011;7177;48.572;7.838;2023-04-06T02:53:15;11.43;;;9.60;;
14191;SDS011;7177;48.572;7.838;2023-04-06T02:55:40;10.53;;;9.00;;
14191;SDS011;7177;48.572;7.838;2023-04-06T02:58:06;10.47;;;9.27;;
14191;SDS011;7177;48.572;7.838;2023-04-06T03:00:31;10.40;;;8.47;;
14191;SDS011;7177;48.572;7.838;2023-04-06T03:02:57;10.93;;;9.63;;
14191;SDS011;7177;48.572;7.838;2023-04-06T03:05:22;13.80;;;8.93;;
14191;SDS011;7177;48.572;7.838;2023-04-06T03:07:48;11.40;;;9.30;;
14191;SDS011;7177;48.572;7.838;2023-04-06T03:10:13;10.70;;;9.33;;
14191;SDS011;7177;48.572;7.838;2023-04-06T03:12:39;11.37;;;9.57;;
14191;SDS011;7177;48.572;7.838;2023-04-06T03:15:06;11.15;;;9.05;;
14191;SDS011;7177;48.572;7.838;2023-04-06T03:17:32;11.85;;;8.75;;
14191;SDS011;7177;48.572;7.838;2023-04-06T03:19:58;11.83;;;9.27;;
14191;SDS011;7177;48.572;7.838;2023-04-06T03:22:23;10.50;;;8.13;;
14191;SDS011;7177;48.572;7.838;2023-04-06T03:24:49;10.87;;;9.10;;
14191;SDS011;7177;48.572;7.838;2023-04-06T03:27:15;10.93;;;9.23;;
14191;SDS011;7177;48.572;7.838;2023-04-06T03:29:40;11.23;;;9.00;;
14191;SDS011;7177;48.572;7.838;2023-04-06T03:32:06;11.97;;;9.90;;
14191;SDS011;7177;48.572;7.838;2023-04-06T03:34:31;12.43;;;10.20;;
14191;SDS011;7177;48.572;7.838;2023-04-06T03:36:57;13.00;;;10.00;;
14191;SDS011;7177;48.572;7.838;2023-04-06T03:39:22;13.17;;;10.07;;
14191;SDS011;7177;48.572;7.838;2023-04-06T03:41:48;12.40;;;9.50;;
14191;SDS011;7177;48.572;7.838;2023-04-06T03:44:13;11.93;;;8.97;;
14191;SDS011;7177;48.572;7.838;2023-04-06T03:46:39;11.95;;;9.07;;
14191;SDS011;7177;48.572;7.838;2023-04-06T03:49:05;13.13;;;9.50;;
14191;SDS011;7177;48.572;7.838;2023-04-06T03:51:30;11.33;;;8.17;;
14191;SDS011;7177;48.572;7.838;2023-04-06T03:53:56;10.13;;;8.67;;
14191;SDS011;7177;48.572;7.838;2023-04-06T03:56:21;10.00;;;8.87;;
14191;SDS011;7177;48.572;7.838;2023-04-06T03:58:47;11.90;;;8.40;;
14191;SDS011;7177;48.572;7.838;2023-04-06T04:01:15;11.40;;;8.57;;
14191;SDS011;7177;48.572;7.838;2023-04-06T04:03:44;9.95;;;8.45;;
14191;SDS011;7177;48.572;7.838;2023-04-06T04:06:09;10.27;;;8.40;;
14191;SDS011;7177;48.572;7.838;2023-04-06T04:08:35;9.20;;;7.80;;
14191;SDS011;7177;48.572;7.838;2023-04-06T04:11:01;12.13;;;9.77;;
14191;SDS011;7177;48.572;7.838;2023-04-06T04:13:26;10.60;;;8.80;;
14191;SDS011;7177;48.572;7.838;2023-04-06T04:15:52;10.43;;;8.90;;
14191;SDS011;7177;48.572;7.838;2023-04-06T04:18:18;11.63;;;9.37;;
14191;SDS011;7177;48.572;7.838;2023-04-06T04:20:43;12.83;;;10.23;;
14191;SDS011;7177;48.572;7.838;2023-04-06T04:23:09;10.40;;;9.30;;
14191;SDS011;7177;48.572;7.838;2023-04-06T04:25:35;11.40;;;9.20;;
14191;SDS011;7177;48.572;7.838;2023-04-06T04:28:01;11.33;;;8.97;;
14191;SDS011;7177;48.572;7.838;2023-04-06T04:30:26;10.40;;;9.10;;
14191;SDS011;7177;48.572;7.838;2023-04-06T04:32:52;11.90;;;9.17;;
14191;SDS011;7177;48.572;7.838;2023-04-06T04:35:17;10.83;;;9.37;;
14191;SDS011;7177;48.572;7.838;2023-04-06T04:37:43;13.03;;;9.40;;
14191;SDS011;7177;48.572;7.838;2023-04-06T04:40:09;12.13;;;9.40;;
14191;SDS011;7177;48.572;7.838;2023-04-06T04:42:35;13.65;;;10.00;;
14191;SDS011;7177;48.572;7.838;2023-04-06T04:45:01;13.10;;;10.30;;
14191;SDS011;7177;48.572;7.838;2023-04-06T04:47:26;16.90;;;9.50;;
14191;SDS011;7177;48.572;7.838;2023-04-06T04:49:52;18.27;;;11.50;;
14191;SDS011;7177;48.572;7.838;2023-04-06T04:52:17;12.93;;;10.47;;
14191;SDS011;7177;48.572;7.838;2023-04-06T04:54:42;11.53;;;9.10;;
14191;SDS011;7177;48.572;7.838;2023-04-06T04:57:08;12.97;;;9.27;;
14191;SDS011;7177;48.572;7.838;2023-04-06T04:59:34;11.23;;;8.87;;
14191;SDS011;7177;48.572;7.838;2023-04-06T05:02:00;11.20;;;8.90;;
14191;SDS011;7177;48.572;7.838;2023-04-06T05:04:26;11.65;;;8.57;;
14191;SDS011;7177;48.572;7.838;2023-04-06T05:07:05;14.50;;;8.80;;
14191;SDS011;7177;48.572;7.838;2023-04-06T05:09:31;10.38;;;8.82;;
14191;SDS011;7177;48.572;7.838;2023-04-06T05:11:58;11.80;;;9.07;;
14191;SDS011;7177;48.572;7.838;2023-04-06T05:14:24;11.55;;;9.60;;
14191;SDS011;7177;48.572;7.838;2023-04-06T05:16:50;11.02;;;9.75;;
14191;SDS011;7177;48.572;7.838;2023-04-06T05:19:16;10.60;;;8.97;;
14191;SDS011;7177;48.572;7.838;2023-04-06T05:21:41;11.17;;;9.20;;
14191;SDS011;7177;48.572;7.838;2023-04-06T05:24:07;11.57;;;8.73;;
14191;SDS011;7177;48.572;7.838;2023-04-06T05:26:33;11.75;;;8.50;;
14191;SDS011;7177;48.572;7.838;2023-04-06T05:28:59;11.63;;;8.93;;
14191;SDS011;7177;48.572;7.838;2023-04-06T05:31:24;12.27;;;8.57;;
14191;SDS011;7177;48.572;7.838;2023-04-06T05:33:50;9.60;;;8.37;;
14191;SDS011;7177;48.572;7.838;2023-04-06T05:36:15;9.87;;;8.87;;
14191;SDS011;7177;48.572;7.838;2023-04-06T05:38:41;13.30;;;9.07;;
14191;SDS011;7177;48.572;7.838;2023-04-06T05:41:06;11.33;;;8.60;;
14191;SDS011;7177;48.572;7.838;2023-04-06T05:43:32;11.27;;;8.73;;
14191;SDS011;7177;48.572;7.838;2023-04-06T05:45:57;11.00;;;8.93;;
14191;SDS011;7177;48.572;7.838;2023-04-06T05:48:23;11.80;;;9.20;;
14191;SDS011;7177;48.572;7.838;2023-04-06T05:50:49;12.93;;;9.20;;
14191;SDS011;7177;48.572;7.838;2023-04-06T05:53:18;12.43;;;8.98;;
14191;SDS011;7177;48.572;7.838;2023-04-06T05:55:43;11.23;;;9.07;;
14191;SDS011;7177;48.572;7.838;2023-04-06T05:58:09;11.77;;;8.93;;
14191;SDS011;7177;48.572;7.838;2023-04-06T06:00:35;10.37;;;8.73;;
14191;SDS011;7177;48.572;7.838;2023-04-06T06:03:00;10.27;;;7.93;;
14191;SDS011;7177;48.572;7.838;2023-04-06T06:05:29;12.73;;;8.70;;
14191;SDS011;7177;48.572;7.838;2023-04-06T06:07:55;9.80;;;8.50;;
14191;SDS011;7177;48.572;7.838;2023-04-06T06:10:20;10.70;;;7.93;;
14191;SDS011;7177;48.572;7.838;2023-04-06T06:12:46;9.50;;;7.73;;
14191;SDS011;7177;48.572;7.838;2023-04-06T06:15:11;11.37;;;7.73;;
14191;SDS011;7177;48.572;7.838;2023-04-06T06:17:37;9.47;;;8.10;;
14191;SDS011;7177;48.572;7.838;2023-04-06T06:20:04;11.27;;;8.70;;
14191;SDS011;7177;48.572;7.838;2023-04-06T06:22:31;13.13;;;8.40;;
14191;SDS011;7177;48.572;7.838;2023-04-06T06:24:56;10.27;;;8.80;;
14191;SDS011;7177;48.572;7.838;2023-04-06T06:27:22;12.43;;;9.03;;
14191;SDS011;7177;48.572;7.838;2023-04-06T06:29:47;15.63;;;8.30;;
14191;SDS011;7177;48.572;7.838;2023-04-06T06:32:13;11.53;;;9.03;;
14191;SDS011;7177;48.572;7.838;2023-04-06T06:34:39;10.45;;;8.43;;
14191;SDS011;7177;48.572;7.838;2023-04-06T06:37:05;10.03;;;8.23;;
14191;SDS011;7177;48.572;7.838;2023-04-06T06:39:31;10.35;;;8.38;;
14191;SDS011;7177;48.572;7.838;2023-04-06T06:41:57;9.50;;;7.70;;
14191;SDS011;7177;48.572;7.838;2023-04-06T06:44:25;12.35;;;8.43;;
14191;SDS011;7177;48.572;7.838;2023-04-06T06:46:51;13.67;;;7.70;;
14191;SDS011;7177;48.572;7.838;2023-04-06T06:49:16;12.23;;;8.10;;
14191;SDS011;7177;48.572;7.838;2023-04-06T06:51:42;13.83;;;8.07;;
14191;SDS011;7177;48.572;7.838;2023-04-06T06:54:07;12.03;;;9.20;;
14191;SDS011;7177;48.572;7.838;2023-04-06T06:56:33;10.80;;;7.57;;
14191;SDS011;7177;48.572;7.838;2023-04-06T06:59:00;12.20;;;8.32;;
14191;SDS011;7177;48.572;7.838;2023-04-06T07:01:26;11.70;;;8.17;;
14191;SDS011;7177;48.572;7.838;2023-04-06T07:03:51;10.40;;;8.30;;
14191;SDS011;7177;48.572;7.838;2023-04-06T07:06:17;10.50;;;8.20;;
14191;SDS011;7177;48.572;7.838;2023-04-06T07:08:42;12.40;;;8.30;;
14191;SDS011;7177;48.572;7.838;2023-04-06T07:11:08;10.67;;;7.80;;
14191;SDS011;7177;48.572;7.838;2023-04-06T07:13:34;10.57;;;8.43;;
14191;SDS011;7177;48.572;7.838;2023-04-06T07:15:59;12.23;;;8.27;;
14191;SDS011;7177;48.572;7.838;2023-04-06T07:18:25;11.73;;;8.90;;
14191;SDS011;7177;48.572;7.838;2023-04-06T07:20:50;10.97;;;8.60;;
14191;SDS011;7177;48.572;7.838;2023-04-06T07:23:16;13.07;;;9.57;;
14191;SDS011;7177;48.572;7.838;2023-04-06T07:25:41;11.37;;;7.87;;
14191;SDS011;7177;48.572;7.838;2023-04-06T07:28:07;10.87;;;9.03;;
14191;SDS011;7177;48.572;7.838;2023-04-06T07:30:32;12.17;;;9.30;;
14191;SDS011;7177;48.572;7.838;2023-04-06T07:32:58;12.50;;;9.40;;
14191;SDS011;7177;48.572;7.838;2023-04-06T07:35:24;12.63;;;8.57;;
14191;SDS011;7177;48.572;7.838;2023-04-06T07:37:51;12.82;;;8.60;;
14191;SDS011;7177;48.572;7.838;2023-04-06T07:40:17;11.25;;;8.43;;
14191;SDS011;7177;48.572;7.838;2023-04-06T07:42:43;10.17;;;8.83;;
14191;SDS011;7177;48.572;7.838;2023-04-06T07:45:08;12.17;;;8.30;;
14191;SDS011;7177;48.572;7.838;2023-04-06T07:47:34;10.90;;;8.37;;
14191;SDS011;7177;48.572;7.838;2023-04-06T07:50:00;11.07;;;8.37;;
14191;SDS011;7177;48.572;7.838;2023-04-06T07:52:25;11.67;;;8.50;;
14191;SDS011;7177;48.572;7.838;2023-04-06T07:54:51;16.20;;;8.90;;
14191;SDS011;7177;48.572;7.838;2023-04-06T07:57:17;12.33;;;7.77;;
14191;SDS011;7177;48.572;7.838;2023-04-06T07:59:43;16.57;;;8.40;;
14191;SDS011;7177;48.572;7.838;2023-04-06T08:02:08;12.63;;;8.50;;
14191;SDS011;7177;48.572;7.838;2023-04-06T08:04:35;13.20;;;8.00;;
14191;SDS011;7177;48.572;7.838;2023-04-06T08:07:00;11.47;;;7.73;;
14191;SDS011;7177;48.572;7.838;2023-04-06T08:09:26;10.83;;;8.47;;
14191;SDS011;7177;48.572;7.838;2023-04-06T08:11:52;11.80;;;7.77;;
14191;SDS011;7177;48.572;7.838;2023-04-06T08:14:18;13.03;;;8.90;;
14191;SDS011;7177;48.572;7.838;2023-04-06T08:16:43;11.33;;;8.60;;
14191;SDS011;7177;48.572;7.838;2023-04-06T08:19:09;12.53;;;8.33;;
14191;SDS011;7177;48.572;7.838;2023-04-06T08:21:35;14.20;;;8.37;;
14191;SDS011;7177;48.572;7.838;2023-04-06T08:24:01;9.73;;;7.40;;
14191;SDS011;7177;48.572;7.838;2023-04-06T08:26:26;11.93;;;7.83;;
14191;SDS011;7177;48.572;7.838;2023-04-06T08:28:53;19.40;;;8.40;;
14191;SDS011;7177;48.572;7.838;2023-04-06T08:31:18;11.53;;;8.10;;
14191;SDS011;7177;48.572;7.838;2023-04-06T08:33:44;11.87;;;8.60;;
14191;SDS011;7177;48.572;7.838;2023-04-06T08:36:10;10.60;;;7.90;;
14191;SDS011;7177;48.572;7.838;2023-04-06T08:38:37;11.87;;;7.27;;
14191;SDS011;7177;48.572;7.838;2023-04-06T08:41:09;10.40;;;8.17;;
14191;SDS011;7177;48.572;7.838;2023-04-06T08:43:41;12.30;;;8.73;;
14191;SDS011;7177;48.572;7.838;2023-04-06T08:46:11;11.13;;;8.00;;
14191;SDS011;7177;48.572;7.838;2023-04-06T08:48:40;11.77;;;8.87;;
14191;SDS011;7177;48.572;7.838;2023-04-06T08:51:10;10.77;;;8.47;;
14191;SDS011;7177;48.572;7.838;2023-04-06T08:53:36;15.00;;;8.27;;
14191;SDS011;7177;48.572;7.838;2023-04-06T08:56:03;10.57;;;8.47;;
14191;SDS011;7177;48.572;7.838;2023-04-06T08:58:32;10.47;;;8.33;;
14191;SDS011;7177;48.572;7.838;2023-04-06T09:01:00;12.97;;;8.63;;
14191;SDS011;7177;48.572;7.838;2023-04-06T09:03:28;12.23;;;9.27;;
14191;SDS011;7177;48.572;7.838;2023-04-06T09:05:55;13.00;;;9.07;;
14191;SDS011;7177;48.572;7.838;2023-04-06T09:08:20;14.03;;;8.90;;
14191;SDS011;7177;48.572;7.838;2023-04-06T09:10:46;13.33;;;8.23;;
14191;SDS011;7177;48.572;7.838;2023-04-06T09:13:13;16.90;;;8.77;;
14191;SDS011;7177;48.572;7.838;2023-04-06T09:15:38;22.73;;;10.03;;
14191;SDS011;7177;48.572;7.838;2023-04-06T09:18:04;10.10;;;8.10;;
14191;SDS011;7177;48.572;7.838;2023-04-06T09:20:30;11.03;;;8.30;;
14191;SDS011;7177;48.572;7.838;2023-04-06T09:22:56;10.43;;;8.17;;
14191;SDS011;7177;48.572;7.838;2023-04-06T09:25:22;12.23;;;8.87;;
14191;SDS011;7177;48.572;7.838;2023-04-06T09:27:48;10.43;;;8.23;;
14191;SDS011;7177;48.572;7.838;2023-04-06T09:30:28;16.23;;;8.63;;
14191;SDS011;7177;48.572;7.838;2023-04-06T09:32:57;11.83;;;8.43;;
14191;SDS011;7177;48.572;7.838;2023-04-06T09:35:24;12.00;;;8.43;;
14191;SDS011;7177;48.572;7.838;2023-04-06T09:37:52;10.03;;;8.60;;
14191;SDS011;7177;48.572;7.838;2023-04-06T09:40:18;12.37;;;8.27;;
14191;SDS011;7177;48.572;7.838;2023-04-06T09:42:45;13.00;;;7.83;;
14191;SDS011;7177;48.572;7.838;2023-04-06T09:45:11;14.17;;;8.90;;
14191;SDS011;7177;48.572;7.838;2023-04-06T09:47:37;9.30;;;8.30;;
14191;SDS011;7177;48.572;7.838;2023-04-06T09:50:07;15.43;;;8.97;;
14191;SDS011;7177;48.572;7.838;2023-04-06T09:52:39;11.63;;;8.77;;
14191;SDS011;7177;48.572;7.838;2023-04-06T09:55:07;11.77;;;8.23;;
14191;SDS011;7177;48.572;7.838;2023-04-06T10:00:23;13.37;;;8.77;;
14191;SDS011;7177;48.572;7.838;2023-04-06T10:05:42;12.07;;;8.70;;
14191;SDS011;7177;48.572;7.838;2023-04-06T10:08:13;14.33;;;8.60;;
14191;SDS011;7177;48.572;7.838;2023-04-06T10:10:39;13.07;;;8.87;;
14191;SDS011;7177;48.572;7.838;2023-04-06T10:13:05;13.00;;;8.33;;
14191;SDS011;7177;48.572;7.838;2023-04-06T10:15:32;11.43;;;8.50;;
14191;SDS011;7177;48.572;7.838;2023-04-06T10:17:58;10.53;;;8.37;;
14191;SDS011;7177;48.572;7.838;2023-04-06T10:20:29;10.53;;;8.57;;
14191;SDS011;7177;48.572;7.838;2023-04-06T10:23:01;10.67;;;8.70;;
14191;SDS011;7177;48.572;7.838;2023-04-06T10:25:33;11.27;;;8.63;;
14191;SDS011;7177;48.572;7.838;2023-04-06T10:28:05;10.47;;;8.20;;
14191;SDS011;7177;48.572;7.838;2023-04-06T10:30:32;20.33;;;9.43;;
14191;SDS011;7177;48.572;7.838;2023-04-06T10:32:59;11.03;;;8.60;;
14191;SDS011;7177;48.572;7.838;2023-04-06T10:35:25;11.87;;;8.57;;
14191;SDS011;7177;48.572;7.838;2023-04-06T10:38:03;11.33;;;8.00;;
14191;SDS011;7177;48.572;7.838;2023-04-06T10:40:29;11.20;;;7.90;;
14191;SDS011;7177;48.572;7.838;2023-04-06T10:43:06;10.47;;;7.90;;
14191;SDS011;7177;48.572;7.838;2023-04-06T10:45:36;12.73;;;7.87;;
14191;SDS011;7177;48.572;7.838;2023-04-06T10:48:23;10.20;;;7.63;;
14191;SDS011;7177;48.572;7.838;2023-04-06T10:50:49;9.73;;;7.33;;
14191;SDS011;7177;48.572;7.838;2023-04-06T10:53:24;9.40;;;6.97;;
14191;SDS011;7177;48.572;7.838;2023-04-06T10:55:51;10.57;;;7.13;;
14191;SDS011;7177;48.572;7.838;2023-04-06T10:58:19;10.73;;;7.30;;
14191;SDS011;7177;48.572;7.838;2023-04-06T11:00:45;11.03;;;8.20;;
14191;SDS011;7177;48.572;7.838;2023-04-06T11:03:12;9.17;;;6.83;;
14191;SDS011;7177;48.572;7.838;2023-04-06T11:05:38;9.63;;;7.27;;
14191;SDS011;7177;48.572;7.838;2023-04-06T11:08:03;11.10;;;7.17;;
14191;SDS011;7177;48.572;7.838;2023-04-06T11:10:29;10.77;;;7.63;;
14191;SDS011;7177;48.572;7.838;2023-04-06T11:12:55;10.10;;;7.27;;
14191;SDS011;7177;48.572;7.838;2023-04-06T11:15:21;11.70;;;8.20;;
14191;SDS011;7177;48.572;7.838;2023-04-06T11:17:47;16.70;;;7.47;;
14191;SDS011;7177;48.572;7.838;2023-04-06T11:20:14;10.30;;;7.13;;
14191;SDS011;7177;48.572;7.838;2023-04-06T11:22:49;9.33;;;7.60;;
14191;SDS011;7177;48.572;7.838;2023-04-06T11:25:16;9.83;;;7.30;;
14191;SDS011;7177;48.572;7.838;2023-04-06T11:27:42;13.50;;;7.53;;
14191;SDS011;7177;48.572;7.838;2023-04-06T11:30:08;10.77;;;7.47;;
14191;SDS011;7177;48.572;7.838;2023-04-06T11:32:40;10.83;;;7.30;;
14191;SDS011;7177;48.572;7.838;2023-04-06T11:35:10;10.50;;;7.57;;
14191;SDS011;7177;48.572;7.838;2023-04-06T11:37:46;9.17;;;6.57;;
14191;SDS011;7177;48.572;7.838;2023-04-06T11:40:13;9.37;;;6.70;;
14191;SDS011;7177;48.572;7.838;2023-04-06T11:42:38;11.23;;;7.37;;
14191;SDS011;7177;48.572;7.838;2023-04-06T11:45:04;10.73;;;7.90;;
14191;SDS011;7177;48.572;7.838;2023-04-06T11:47:36;11.73;;;7.57;;
14191;SDS011;7177;48.572;7.838;2023-04-06T11:50:09;12.13;;;7.50;;
14191;SDS011;7177;48.572;7.838;2023-04-06T11:52:37;11.43;;;7.00;;
14191;SDS011;7177;48.572;7.838;2023-04-06T11:55:10;10.33;;;6.50;;
14191;SDS011;7177;48.572;7.838;2023-04-06T11:57:38;9.50;;;6.97;;
14191;SDS011;7177;48.572;7.838;2023-04-06T12:00:04;12.17;;;6.90;;
14191;SDS011;7177;48.572;7.838;2023-04-06T12:02:31;7.60;;;5.83;;
14191;SDS011;7177;48.572;7.838;2023-04-06T12:04:57;9.20;;;6.70;;
14191;SDS011;7177;48.572;7.838;2023-04-06T12:07:22;8.03;;;6.00;;
14191;SDS011;7177;48.572;7.838;2023-04-06T12:09:48;9.97;;;6.93;;
14191;SDS011;7177;48.572;7.838;2023-04-06T12:12:13;9.80;;;6.77;;
14191;SDS011;7177;48.572;7.838;2023-04-06T12:14:39;13.23;;;6.73;;
14191;SDS011;7177;48.572;7.838;2023-04-06T12:17:05;13.57;;;8.37;;
14191;SDS011;7177;48.572;7.838;2023-04-06T12:19:30;12.17;;;7.03;;
14191;SDS011;7177;48.572;7.838;2023-04-06T12:21:56;9.17;;;6.77;;
14191;SDS011;7177;48.572;7.838;2023-04-06T12:24:22;11.03;;;6.50;;
14191;SDS011;7177;48.572;7.838;2023-04-06T12:26:48;8.93;;;6.20;;
14191;SDS011;7177;48.572;7.838;2023-04-06T12:29:14;10.43;;;6.00;;
14191;SDS011;7177;48.572;7.838;2023-04-06T12:31:39;13.03;;;7.03;;
14191;SDS011;7177;48.572;7.838;2023-04-06T12:34:07;9.07;;;6.17;;
14191;SDS011;7177;48.572;7.838;2023-04-06T12:36:33;12.13;;;6.20;;
14191;SDS011;7177;48.572;7.838;2023-04-06T12:38:58;15.43;;;7.80;;
14191;SDS011;7177;48.572;7.838;2023-04-06T12:41:25;9.60;;;6.10;;
14191;SDS011;7177;48.572;7.838;2023-04-06T12:43:51;9.77;;;6.50;;
14191;SDS011;7177;48.572;7.838;2023-04-06T12:46:16;8.57;;;6.03;;
14191;SDS011;7177;48.572;7.838;2023-04-06T12:48:42;9.10;;;6.40;;
14191;SDS011;7177;48.572;7.838;2023-04-06T12:51:07;7.90;;;5.87;;
14191;SDS011;7177;48.572;7.838;2023-04-06T12:53:33;11.90;;;6.90;;
14191;SDS011;7177;48.572;7.838;2023-04-06T12:55:59;10.80;;;6.70;;
14191;SDS011;7177;48.572;7.838;2023-04-06T12:58:26;9.07;;;6.40;;
14191;SDS011;7177;48.572;7.838;2023-04-06T13:00:53;10.60;;;6.80;;
14191;SDS011;7177;48.572;7.838;2023-04-06T13:03:19;10.43;;;6.80;;
14191;SDS011;7177;48.572;7.838;2023-04-06T13:05:46;12.03;;;6.40;;
14191;SDS011;7177;48.572;7.838;2023-04-06T13:08:12;9.83;;;6.27;;
14191;SDS011;7177;48.572;7.838;2023-04-06T13:10:42;8.83;;;5.97;;
14191;SDS011;7177;48.572;7.838;2023-04-06T13:13:08;8.40;;;6.40;;
14191;SDS011;7177;48.572;7.838;2023-04-06T13:15:34;13.93;;;7.10;;
14191;SDS011;7177;48.572;7.838;2023-04-06T13:18:01;9.33;;;6.43;;
14191;SDS011;7177;48.572;7.838;2023-04-06T13:20:27;9.37;;;6.53;;
14191;SDS011;7177;48.572;7.838;2023-04-06T13:22:52;9.33;;;6.00;;
14191;SDS011;7177;48.572;7.838;2023-04-06T13:25:18;11.87;;;7.20;;
14191;SDS011;7177;48.572;7.838;2023-04-06T13:27:43;12.10;;;6.40;;
14191;SDS011;7177;48.572;7.838;2023-04-06T13:30:12;9.53;;;6.63;;
14191;SDS011;7177;48.572;7.838;2023-04-06T13:32:38;9.53;;;6.07;;
14191;SDS011;7177;48.572;7.838;2023-04-06T13:35:04;11.63;;;6.57;;
14191;SDS011;7177;48.572;7.838;2023-04-06T13:37:31;8.83;;;6.20;;
14191;SDS011;7177;48.572;7.838;2023-04-06T13:39:57;12.27;;;5.93;;
14191;SDS011;7177;48.572;7.838;2023-04-06T13:42:22;8.43;;;5.83;;
14191;SDS011;7177;48.572;7.838;2023-04-06T13:44:48;9.83;;;6.50;;
14191;SDS011;7177;48.572;7.838;2023-04-06T13:47:15;8.73;;;6.07;;
14191;SDS011;7177;48.572;7.838;2023-04-06T13:49:41;9.20;;;5.80;;
14191;SDS011;7177;48.572;7.838;2023-04-06T13:52:06;10.47;;;6.17;;
14191;SDS011;7177;48.572;7.838;2023-04-06T13:54:32;9.77;;;6.73;;
14191;SDS011;7177;48.572;7.838;2023-04-06T13:56:57;12.37;;;6.87;;
14191;SDS011;7177;48.572;7.838;2023-04-06T13:59:23;7.90;;;5.47;;
14191;SDS011;7177;48.572;7.838;2023-04-06T14:01:48;8.23;;;5.83;;
14191;SDS011;7177;48.572;7.838;2023-04-06T14:04:14;9.23;;;6.23;;
14191;SDS011;7177;48.572;7.838;2023-04-06T14:06:40;9.10;;;5.93;;
14191;SDS011;7177;48.572;7.838;2023-04-06T14:09:06;7.90;;;5.90;;
14191;SDS011;7177;48.572;7.838;2023-04-06T14:11:32;9.10;;;5.93;;
14191;SDS011;7177;48.572;7.838;2023-04-06T14:13:57;10.37;;;6.53;;
14191;SDS011;7177;48.572;7.838;2023-04-06T14:16:23;10.07;;;6.40;;
14191;SDS011;7177;48.572;7.838;2023-04-06T14:18:49;8.70;;;6.23;;
14191;SDS011;7177;48.572;7.838;2023-04-06T14:21:16;9.00;;;5.90;;
14191;SDS011;7177;48.572;7.838;2023-04-06T14:23:41;8.90;;;6.27;;
14191;SDS011;7177;48.572;7.838;2023-04-06T14:26:07;8.93;;;6.20;;
14191;SDS011;7177;48.572;7.838;2023-04-06T14:28:33;10.73;;;6.27;;
14191;SDS011;7177;48.572;7.838;2023-04-06T14:31:01;8.07;;;5.93;;
14191;SDS011;7177;48.572;7.838;2023-04-06T14:33:33;8.47;;;6.13;;
14191;SDS011;7177;48.572;7.838;2023-04-06T14:36:01;9.00;;;5.80;;
14191;SDS011;7177;48.572;7.838;2023-04-06T14:38:27;9.33;;;6.57;;
14191;SDS011;7177;48.572;7.838;2023-04-06T14:40:53;16.73;;;5.60;;
14191;SDS011;7177;48.572;7.838;2023-04-06T14:43:20;8.43;;;5.43;;
14191;SDS011;7177;48.572;7.838;2023-04-06T14:45:46;6.10;;;4.30;;
14191;SDS011;7177;48.572;7.838;2023-04-06T14:48:12;8.47;;;5.47;;